Time;durP1;ratioP1;P1;durP2;ratioP2;P2;SDS_P1;SDS_P2;PMS_P1;PMS_P2;Temp;Humidity;BMP_temperature;BMP_pressure;BME280_temperature;BME280_humidity;BME280_pressure;Samples;Min_cycle;Max_cycle;Signal;HPM_P1;HPM_P2
2021/12/23 00:00:47;;;;;;;5.95;2.90;;;18.10;52.50;;;;;;4975914;28;86078;-75
2021/12/23 00:03:13;;;;;;;5.53;2.90;;;18.10;52.50;;;;;;4975086;28;86600;-72
2021/12/23 00:05:39;;;;;;;6.20;2.75;;;18.00;52.50;;;;;;4975286;28;86827;-75
2021/12/23 00:08:04;;;;;;;6.10;2.75;;;18.00;52.50;;;;;;4975442;28;86095;-75
2021/12/23 00:10:30;;;;;;;8.27;3.25;;;18.00;52.50;;;;;;4975321;28;87026;-75
2021/12/23 00:12:56;;;;;;;5.28;2.95;;;18.00;53.10;;;;;;4974670;28;86910;-74
2021/12/23 00:18:03;;;;;;;5.28;3.00;;;18.00;53.20;;;;;;4975867;28;85939;-74
2021/12/23 00:25:48;;;;;;;7.07;3.25;;;17.90;52.60;;;;;;4974553;28;85838;-73
2021/12/23 00:28:14;;;;;;;4.93;2.95;;;17.90;52.70;;;;;;4956672;28;90757;-74
2021/12/23 00:30:40;;;;;;;3.78;2.45;;;17.90;52.70;;;;;;4973429;28;86628;-74
2021/12/23 00:33:05;;;;;;;4.75;2.90;;;17.90;52.70;;;;;;4974532;28;85823;-77
2021/12/23 00:35:31;;;;;;;5.28;3.17;;;17.90;52.70;;;;;;4973916;28;86381;-76
2021/12/23 00:38:01;;;;;;;5.10;2.88;;;17.90;52.40;;;;;;4974983;28;86334;-73
2021/12/23 00:40:27;;;;;;;4.78;2.80;;;17.90;52.80;;;;;;4974839;28;87397;-75
2021/12/23 00:42:53;;;;;;;4.97;3.00;;;17.90;52.80;;;;;;4974755;28;85787;-74
2021/12/23 00:45:20;;;;;;;6.40;2.97;;;17.80;52.80;;;;;;4974543;28;85789;-75
2021/12/23 00:47:46;;;;;;;5.50;2.65;;;17.80;52.80;;;;;;4975358;28;86284;-74
2021/12/23 00:50:12;;;;;;;4.25;2.78;;;17.80;52.80;;;;;;4974396;28;87631;-75
2021/12/23 00:52:40;;;;;;;7.45;2.95;;;17.80;52.80;;;;;;4974274;28;85944;-74
2021/12/23 00:55:08;;;;;;;5.55;2.88;;;17.80;52.80;;;;;;4974129;28;86508;-74
2021/12/23 00:57:38;;;;;;;5.65;2.78;;;17.80;52.80;;;;;;4972774;28;87571;-74
2021/12/23 01:00:12;;;;;;;6.72;3.05;;;17.80;52.90;;;;;;4955724;28;87162;-75
2021/12/23 01:02:43;;;;;;;3.72;2.72;;;17.80;52.90;;;;;;4972297;28;86210;-75
2021/12/23 01:05:09;;;;;;;4.28;2.85;;;17.70;52.90;;;;;;4973351;28;86195;-75
2021/12/23 01:07:34;;;;;;;5.05;3.13;;;17.70;52.90;;;;;;4974510;28;86432;-75
2021/12/23 01:10:00;;;;;;;4.57;2.88;;;17.70;52.90;;;;;;4974912;28;86711;-75
2021/12/23 01:12:31;;;;;;;5.88;2.83;;;17.70;52.90;;;;;;4975286;28;86204;-74
2021/12/23 01:15:10;;;;;;;3.63;2.67;;;17.70;53.00;;;;;;4975023;28;86328;-76
2021/12/23 01:17:53;;;;;;;4.32;2.53;;;17.70;53.00;;;;;;4956790;28;90152;-75
2021/12/23 01:20:30;;;;;;;4.45;2.75;;;17.70;53.00;;;;;;4974272;28;86680;-75
2021/12/23 01:22:59;;;;;;;4.53;3.20;;;17.70;53.10;;;;;;4956893;28;85967;-75
2021/12/23 01:25:26;;;;;;;4.55;2.72;;;17.70;53.10;;;;;;4974335;28;85857;-77
2021/12/23 01:27:52;;;;;;;5.65;2.90;;;17.60;53.00;;;;;;4974459;28;86439;-75
2021/12/23 01:30:18;;;;;;;5.03;2.70;;;17.60;53.10;;;;;;4956015;28;86444;-75
2021/12/23 01:32:45;;;;;;;3.63;2.58;;;17.60;53.10;;;;;;4974611;28;86003;-74
2021/12/23 01:35:11;;;;;;;4.80;3.08;;;17.60;53.10;;;;;;4973595;28;86306;-75
2021/12/23 01:37:37;;;;;;;5.22;2.40;;;17.60;53.20;;;;;;4975058;28;87311;-74
2021/12/23 01:40:04;;;;;;;4.20;3.15;;;17.60;53.20;;;;;;4974192;28;88000;-75
2021/12/23 01:42:30;;;;;;;7.15;3.42;;;17.60;53.30;;;;;;4975041;28;85958;-75
2021/12/23 01:44:56;;;;;;;6.28;3.10;;;17.60;53.30;;;;;;4975362;28;86574;-75
2021/12/23 01:47:23;;;;;;;3.85;2.70;;;17.50;53.30;;;;;;4974545;28;86752;-75
2021/12/23 01:49:49;;;;;;;3.28;2.70;;;17.50;53.40;;;;;;4956082;28;87387;-76
2021/12/23 01:52:15;;;;;;;5.90;3.08;;;17.50;53.30;;;;;;4974860;28;86842;-74
2021/12/23 01:54:41;;;;;;;3.85;2.63;;;17.50;53.40;;;;;;4973158;28;86316;-74
2021/12/23 01:57:06;;;;;;;6.30;3.10;;;17.50;53.40;;;;;;4973221;28;86577;-75
2021/12/23 01:59:33;;;;;;;5.80;2.85;;;17.50;53.50;;;;;;4973844;28;87180;-74
2021/12/23 02:01:59;;;;;;;5.82;2.90;;;17.50;53.50;;;;;;4973258;28;86709;-76
2021/12/23 02:04:25;;;;;;;4.40;2.72;;;17.50;53.50;;;;;;4974215;28;85763;-74
2021/12/23 02:06:50;;;;;;;7.40;2.50;;;17.50;53.60;;;;;;4972817;28;86801;-75
2021/12/23 02:09:18;;;;;;;4.70;2.53;;;17.50;53.60;;;;;;4955692;28;87418;-75
2021/12/23 02:11:44;;;;;;;5.82;3.72;;;17.50;53.60;;;;;;4972475;28;86945;-75
2021/12/23 02:14:10;;;;;;;4.68;2.83;;;17.40;53.60;;;;;;4973027;28;86692;-73
2021/12/23 02:16:35;;;;;;;6.70;3.05;;;17.40;53.60;;;;;;4972779;28;86697;-75
2021/12/23 02:19:04;;;;;;;4.95;2.60;;;17.40;53.60;;;;;;4972180;28;86600;-75
2021/12/23 02:21:30;;;;;;;4.20;2.67;;;17.40;53.60;;;;;;4954640;28;86414;-74
2021/12/23 02:23:55;;;;;;;3.70;2.60;;;17.40;53.60;;;;;;4971969;28;86449;-74
2021/12/23 02:26:21;;;;;;;4.97;2.80;;;17.40;53.70;;;;;;4955029;28;87960;-73
2021/12/23 02:28:47;;;;;;;8.15;3.00;;;17.40;53.70;;;;;;4972369;28;86702;-74
2021/12/23 02:31:12;;;;;;;5.72;3.25;;;17.40;53.70;;;;;;4972415;28;86234;-73
2021/12/23 02:33:38;;;;;;;3.65;2.50;;;17.40;53.70;;;;;;4972148;28;86295;-75
2021/12/23 02:36:04;;;;;;;4.95;2.60;;;17.40;53.70;;;;;;4973291;28;86165;-74
2021/12/23 02:38:30;;;;;;;4.40;2.47;;;17.40;53.40;;;;;;4971137;28;87158;-76
2021/12/23 02:40:56;;;;;;;5.05;2.67;;;17.40;53.80;;;;;;4971449;28;86457;-76
2021/12/23 02:43:24;;;;;;;4.20;2.63;;;17.40;53.80;;;;;;4971262;28;87045;-75
2021/12/23 02:45:53;;;;;;;4.43;2.55;;;17.30;53.80;;;;;;4970960;28;88747;-78
2021/12/23 02:48:25;;;;;;;4.32;3.03;;;17.30;53.80;;;;;;4971411;28;86780;-75
2021/12/23 02:50:54;;;;;;;6.38;3.10;;;17.30;53.80;;;;;;4971800;28;86852;-76
2021/12/23 02:53:20;;;;;;;4.97;2.75;;;17.30;53.80;;;;;;4971555;28;86004;-76
2021/12/23 02:55:46;;;;;;;4.25;2.72;;;17.30;53.80;;;;;;4971306;28;86157;-73
2021/12/23 02:58:13;;;;;;;3.63;2.58;;;17.30;53.90;;;;;;4970433;28;85934;-73
2021/12/23 03:00:41;;;;;;;3.92;2.85;;;17.30;53.90;;;;;;4971157;28;85832;-75
2021/12/23 03:03:06;;;;;;;4.32;2.88;;;17.30;53.90;;;;;;4971787;28;86389;-74
2021/12/23 03:05:32;;;;;;;4.45;2.83;;;17.20;53.90;;;;;;4971786;28;86608;-73
2021/12/23 03:08:01;;;;;;;3.95;2.97;;;17.20;53.90;;;;;;4971372;28;86628;-76
2021/12/23 03:10:27;;;;;;;4.85;3.10;;;17.20;53.90;;;;;;4971986;28;85928;-78
2021/12/23 03:12:53;;;;;;;4.88;3.17;;;17.20;53.90;;;;;;4971092;28;86431;-75
2021/12/23 03:15:19;;;;;;;5.13;3.03;;;17.20;54.00;;;;;;4971993;28;86887;-73
2021/12/23 03:17:44;;;;;;;4.78;2.95;;;17.20;53.90;;;;;;4970527;28;86343;-74
2021/12/23 03:20:11;;;;;;;3.72;2.55;;;17.20;54.00;;;;;;4971258;28;86236;-75
2021/12/23 03:22:37;;;;;;;4.35;2.85;;;17.20;54.00;;;;;;4970663;28;85791;-76
2021/12/23 03:25:03;;;;;;;5.63;3.22;;;17.20;54.00;;;;;;4953739;28;87989;-75
2021/12/23 03:27:30;;;;;;;3.65;2.63;;;17.20;54.00;;;;;;5017762;22;88135;-73
2021/12/23 03:29:59;;;;;;;6.45;3.05;;;17.20;54.00;;;;;;4980695;28;85754;-74
2021/12/23 03:32:25;;;;;;;5.28;3.17;;;17.20;54.00;;;;;;4981259;28;85731;-74
2021/12/23 03:34:51;;;;;;;6.38;2.90;;;17.20;54.00;;;;;;4982922;28;86625;-73
2021/12/23 03:37:16;;;;;;;6.63;3.00;;;17.20;54.00;;;;;;4981830;28;86525;-74
2021/12/23 03:39:42;;;;;;;4.32;3.03;;;17.20;54.10;;;;;;4982391;28;85700;-73
2021/12/23 03:42:08;;;;;;;4.47;2.88;;;17.10;54.00;;;;;;4982340;28;86098;-75
2021/12/23 03:44:34;;;;;;;4.40;3.03;;;17.10;54.00;;;;;;4982153;28;85692;-75
2021/12/23 03:46:59;;;;;;;4.07;2.88;;;17.10;54.00;;;;;;4981413;28;85685;-74
2021/12/23 03:49:25;;;;;;;4.45;2.88;;;17.10;54.00;;;;;;4981443;28;85881;-74
2021/12/23 03:51:50;;;;;;;5.63;2.90;;;17.10;54.00;;;;;;4981534;28;85281;-73
2021/12/23 03:54:16;;;;;;;4.68;2.90;;;17.10;54.10;;;;;;4982080;28;86148;-76
2021/12/23 03:56:44;;;;;;;3.67;2.55;;;17.10;54.10;;;;;;4981123;28;86179;-73
2021/12/23 03:59:10;;;;;;;7.15;2.75;;;17.10;54.10;;;;;;4980449;28;85626;-73
2021/12/23 04:01:37;;;;;;;4.85;2.53;;;17.10;54.10;;;;;;4981534;28;85291;-73
2021/12/23 04:04:03;;;;;;;5.65;2.53;;;17.10;54.10;;;;;;4962305;28;88235;-75
2021/12/23 04:06:29;;;;;;;6.18;2.92;;;17.10;54.10;;;;;;4963145;28;85598;-73
2021/12/23 04:08:55;;;;;;;4.18;2.83;;;17.00;54.10;;;;;;4962737;28;85925;-76
2021/12/23 04:11:22;;;;;;;4.40;2.85;;;17.10;54.20;;;;;;4962444;28;86756;-73
2021/12/23 04:13:48;;;;;;;3.95;2.67;;;17.10;54.10;;;;;;4980028;28;85591;-74
2021/12/23 04:16:16;;;;;;;6.00;2.90;;;17.00;54.10;;;;;;4979244;28;86608;-73
2021/12/23 04:18:45;;;;;;;4.63;3.00;;;17.00;54.10;;;;;;4980022;28;86380;-73
2021/12/23 04:21:12;;;;;;;3.33;2.60;;;17.00;54.10;;;;;;4980147;28;86489;-74
2021/12/23 04:23:37;;;;;;;4.13;3.08;;;17.00;54.10;;;;;;4980120;28;86059;-73
2021/12/23 04:26:03;;;;;;;6.60;3.70;;;17.00;54.10;;;;;;4979231;28;86466;-73
2021/12/23 04:28:29;;;;;;;5.40;3.03;;;17.00;54.10;;;;;;4979301;28;85626;-73
2021/12/23 04:30:55;;;;;;;4.10;2.45;;;17.00;54.10;;;;;;4980531;28;86645;-74
2021/12/23 04:33:21;;;;;;;3.53;2.33;;;17.00;54.10;;;;;;4979187;28;86860;-73
2021/12/23 04:35:47;;;;;;;7.40;2.80;;;17.00;54.20;;;;;;4979423;28;86445;-74
2021/12/23 04:38:13;;;;;;;6.10;3.05;;;17.00;54.20;;;;;;4979918;28;85296;-75
2021/12/23 04:40:39;;;;;;;2.90;2.45;;;17.00;54.20;;;;;;4977169;28;86222;-76
2021/12/23 04:43:06;;;;;;;4.30;2.80;;;17.00;54.20;;;;;;4976126;28;86234;-74
2021/12/23 04:45:32;;;;;;;4.50;3.03;;;17.00;54.30;;;;;;4977089;28;85506;-74
2021/12/23 04:47:58;;;;;;;6.35;3.30;;;17.00;54.20;;;;;;4975914;28;86300;-75
2021/12/23 04:50:24;;;;;;;4.53;2.72;;;17.10;54.10;;;;;;4976118;28;86272;-75
2021/12/23 04:52:51;;;;;;;4.30;2.63;;;17.20;54.00;;;;;;4975799;28;86919;-74
2021/12/23 04:55:18;;;;;;;4.25;2.88;;;17.30;53.90;;;;;;4977560;28;86542;-74
2021/12/23 04:57:44;;;;;;;4.32;2.88;;;17.40;53.80;;;;;;4958723;28;87020;-73
2021/12/23 05:00:19;;;;;;;4.38;2.47;;;17.50;53.60;;;;;;4976185;28;85778;-75
2021/12/23 05:02:46;;;;;;;5.13;3.35;;;17.70;53.50;;;;;;4976460;28;86543;-74
2021/12/23 05:05:11;;;;;;;2.70;2.15;;;17.80;53.80;;;;;;4975755;28;86695;-79
2021/12/23 05:07:37;;;;;;;4.38;2.80;;;17.90;53.10;;;;;;4976102;28;86859;-74
2021/12/23 05:10:05;;;;;;;3.83;2.65;;;18.00;53.00;;;;;;4975446;28;86072;-73
2021/12/23 05:12:31;;;;;;;2.97;2.17;;;18.10;52.80;;;;;;4957818;28;89346;-76
2021/12/23 05:14:56;;;;;;;4.22;2.60;;;18.20;52.70;;;;;;4976198;28;86207;-73
2021/12/23 05:17:22;;;;;;;4.55;3.15;;;18.40;52.60;;;;;;4975881;28;86374;-75
2021/12/23 05:19:48;;;;;;;3.53;2.58;;;18.40;52.40;;;;;;4956913;28;86429;-75
2021/12/23 05:22:13;;;;;;;4.82;2.83;;;18.40;52.30;;;;;;4975290;28;87020;-75
2021/12/23 05:24:39;;;;;;;4.32;2.60;;;18.50;52.20;;;;;;4957238;28;86997;-74
2021/12/23 05:27:05;;;;;;;3.47;2.13;;;18.60;52.20;;;;;;4972876;28;85727;-75
2021/12/23 05:29:30;;;;;;;3.35;2.53;;;18.70;52.10;;;;;;4974348;28;86314;-73
2021/12/23 05:31:56;;;;;;;7.25;2.60;;;18.70;52.00;;;;;;4974730;28;87012;-74
2021/12/23 05:34:22;;;;;;;4.50;2.30;;;18.70;51.90;;;;;;4973727;28;86752;-77
2021/12/23 05:36:47;;;;;;;4.80;2.47;;;18.80;51.90;;;;;;4957326;28;86296;-74
2021/12/23 05:39:13;;;;;;;4.32;2.85;;;18.80;51.90;;;;;;4974918;28;85723;-74
2021/12/23 05:41:39;;;;;;;4.50;2.42;;;18.90;51.80;;;;;;4973632;28;87616;-76
2021/12/23 05:44:06;;;;;;;4.57;2.60;;;19.00;51.80;;;;;;4974881;28;85830;-73
2021/12/23 05:46:32;;;;;;;7.30;2.30;;;19.00;51.70;;;;;;4974402;28;87262;-76
2021/12/23 05:48:58;;;;;;;5.15;2.38;;;19.10;51.70;;;;;;4974905;28;85606;-75
2021/12/23 05:51:24;;;;;;;4.13;2.42;;;19.10;51.60;;;;;;4974754;28;86868;-73
2021/12/23 05:53:49;;;;;;;3.13;2.20;;;19.20;51.60;;;;;;4975566;28;87558;-75
2021/12/23 05:56:16;;;;;;;3.83;2.30;;;19.20;51.50;;;;;;4959346;28;86656;-76
2021/12/23 05:58:41;;;;;;;4.88;2.30;;;19.30;51.40;;;;;;4975788;28;86222;-75
2021/12/23 06:01:07;;;;;;;3.65;2.55;;;19.30;51.40;;;;;;4975207;28;85592;-75
2021/12/23 06:03:33;;;;;;;5.03;2.63;;;19.30;51.30;;;;;;4974058;28;85677;-74
2021/12/23 06:05:58;;;;;;;4.20;2.28;;;19.30;51.30;;;;;;4974393;28;86080;-74
2021/12/23 06:08:24;;;;;;;4.93;2.50;;;19.40;51.30;;;;;;4974222;28;86637;-74
2021/12/23 06:10:51;;;;;;;4.05;2.30;;;19.40;51.30;;;;;;4973680;28;87558;-78
2021/12/23 06:13:16;;;;;;;3.97;2.55;;;19.40;51.20;;;;;;4973870;28;85491;-75
2021/12/23 06:15:42;;;;;;;4.00;2.17;;;19.40;51.20;;;;;;4974513;28;86837;-74
2021/12/23 06:18:07;;;;;;;3.45;2.25;;;19.40;51.20;;;;;;4973800;28;87047;-74
2021/12/23 06:20:33;;;;;;;5.45;2.45;;;19.40;51.30;;;;;;4974204;28;85640;-73
2021/12/23 06:22:59;;;;;;;27.77;4.55;;;19.40;51.20;;;;;;4974147;28;85709;-79
2021/12/23 06:25:24;;;;;;;22.52;4.53;;;19.40;51.30;;;;;;4973642;28;86658;-77
2021/12/23 06:27:50;;;;;;;33.83;6.53;;;19.40;51.20;;;;;;4973630;28;87033;-76
2021/12/23 06:32:45;;;;;;;26.73;5.47;;;19.40;51.30;;;;;;4973370;28;86467;-74
2021/12/23 06:35:12;;;;;;;33.65;5.78;;;19.40;51.30;;;;;;4974779;28;86167;-77
2021/12/23 06:37:38;;;;;;;29.67;5.47;;;19.30;51.30;;;;;;4974199;28;86961;-76
2021/12/23 06:40:07;;;;;;;25.75;4.88;;;19.30;51.40;;;;;;4972116;28;86969;-74
2021/12/23 06:42:33;;;;;;;28.23;6.10;;;19.30;51.50;;;;;;4956233;28;85711;-75
2021/12/23 06:44:59;;;;;;;26.10;5.90;;;19.30;51.80;;;;;;4974710;28;86584;-76
2021/12/23 06:47:24;;;;;;;25.40;6.07;;;19.20;51.70;;;;;;4973094;28;86009;-78
2021/12/23 06:49:50;;;;;;;23.35;7.57;;;19.20;51.60;;;;;;4975172;28;85831;-76
2021/12/23 06:52:15;;;;;;;24.75;7.63;;;19.30;51.60;;;;;;4973481;28;85262;-75
2021/12/23 06:54:48;;;;;;;32.45;7.70;;;19.30;51.70;;;;;;4939724;28;86212;-75
2021/12/23 06:57:14;;;;;;;31.83;7.63;;;19.30;51.90;;;;;;4974087;28;86761;-75
2021/12/23 06:59:40;;;;;;;29.65;7.30;;;19.40;52.10;;;;;;4974682;28;86358;-74
2021/12/23 07:02:06;;;;;;;28.60;7.13;;;19.40;52.10;;;;;;4958599;28;89192;-75
2021/12/23 07:04:33;;;;;;;30.60;7.30;;;19.50;52.10;;;;;;4974566;28;86228;-75
2021/12/23 07:07:10;;;;;;;31.45;7.55;;;19.60;52.20;;;;;;4973421;28;86545;-74
2021/12/23 07:09:36;;;;;;;29.55;7.78;;;19.60;52.10;;;;;;4965236;28;87257;-75
2021/12/23 07:12:04;;;;;;;28.17;7.10;;;19.70;52.20;;;;;;4947364;28;88961;-76
2021/12/23 07:14:30;;;;;;;24.98;7.70;;;19.70;51.50;;;;;;4967167;28;85729;-75
2021/12/23 07:16:55;;;;;;;28.48;7.82;;;19.80;51.10;;;;;;4977663;28;86387;-78
2021/12/23 07:19:21;;;;;;;29.05;8.48;;;19.80;50.90;;;;;;4977849;28;86820;-77
2021/12/23 07:21:46;;;;;;;23.50;7.00;;;19.90;50.80;;;;;;4977991;28;86263;-77
2021/12/23 07:24:12;;;;;;;17.10;6.07;;;19.90;50.80;;;;;;4976021;28;86904;-74
2021/12/23 07:26:38;;;;;;;20.17;6.78;;;19.90;50.80;;;;;;4980010;28;85776;-79
2021/12/23 07:29:04;;;;;;;24.45;7.32;;;20.00;50.50;;;;;;4977664;28;86268;-78
2021/12/23 07:31:29;;;;;;;24.90;6.47;;;20.10;50.30;;;;;;4975540;28;86834;-75
2021/12/23 07:33:55;;;;;;;16.17;5.85;;;20.10;50.20;;;;;;4976310;28;85680;-74
2021/12/23 07:36:22;;;;;;;20.10;6.43;;;20.10;50.10;;;;;;4960838;28;86917;-74
2021/12/23 07:38:49;;;;;;;16.10;6.70;;;20.20;50.20;;;;;;4958870;28;85896;-75
2021/12/23 07:41:15;;;;;;;20.70;5.85;;;20.20;50.60;;;;;;4976917;28;86542;-75
2021/12/23 07:46:07;;;;;;;16.23;6.05;;;20.30;50.20;;;;;;4977215;28;85606;-75
2021/12/23 07:48:34;;;;;;;17.90;6.45;;;20.40;50.30;;;;;;4973982;28;86494;-74
2021/12/23 07:51:01;;;;;;;17.02;5.03;;;20.40;50.40;;;;;;4976701;28;86356;-75
2021/12/23 07:53:27;;;;;;;19.05;6.68;;;20.40;50.50;;;;;;4975444;28;86961;-74
2021/12/23 07:55:53;;;;;;;16.92;5.15;;;20.40;50.50;;;;;;4975848;28;85366;-74
2021/12/23 07:58:18;;;;;;;17.02;5.38;;;20.50;50.50;;;;;;4975759;28;85736;-77
2021/12/23 08:00:45;;;;;;;17.08;5.55;;;20.40;50.50;;;;;;4977062;28;86707;-79
2021/12/23 08:03:10;;;;;;;18.25;4.95;;;20.50;50.60;;;;;;4975110;28;85706;-76
2021/12/23 08:05:36;;;;;;;20.52;5.63;;;20.40;50.60;;;;;;4958363;28;86405;-76
2021/12/23 08:08:03;;;;;;;15.50;4.40;;;20.40;50.80;;;;;;4977797;28;84906;-74
2021/12/23 08:10:29;;;;;;;15.02;6.18;;;20.50;50.80;;;;;;4976959;28;86096;-79
2021/12/23 08:12:55;;;;;;;14.85;4.70;;;20.40;50.80;;;;;;4976943;28;85721;-77
2021/12/23 08:15:22;;;;;;;12.93;4.43;;;20.50;50.90;;;;;;4960485;28;85693;-77
2021/12/23 08:17:48;;;;;;;11.70;3.95;;;20.40;50.90;;;;;;4977081;28;85936;-77
2021/12/23 08:20:16;;;;;;;26.75;4.35;;;20.40;51.50;;;;;;4958895;28;86748;-77
2021/12/23 08:22:42;;;;;;;23.30;4.45;;;20.40;51.10;;;;;;4975890;28;86391;-74
2021/12/23 08:25:09;;;;;;;13.93;5.13;;;20.40;51.20;;;;;;4959928;28;85474;-78
2021/12/23 08:27:35;;;;;;;9.90;4.40;;;20.40;51.20;;;;;;4973797;28;86527;-75
2021/12/23 08:30:05;;;;;;;16.38;5.03;;;20.40;51.30;;;;;;4980404;28;85866;-75
2021/12/23 08:32:30;;;;;;;8.00;3.80;;;20.40;51.30;;;;;;4977995;28;85731;-77
2021/12/23 08:34:56;;;;;;;12.32;4.30;;;20.30;51.30;;;;;;4959947;28;85978;-74
2021/12/23 08:37:22;;;;;;;12.40;4.03;;;20.30;51.40;;;;;;4977988;28;85621;-74
2021/12/23 08:39:48;;;;;;;10.73;4.22;;;20.30;51.40;;;;;;4978019;28;87510;-78
2021/12/23 08:42:14;;;;;;;14.30;4.25;;;20.30;51.40;;;;;;4977905;28;86279;-76
2021/12/23 08:44:40;;;;;;;11.38;3.95;;;20.30;51.50;;;;;;4975749;28;85819;-76
2021/12/23 08:47:07;;;;;;;14.43;4.10;;;20.30;51.60;;;;;;4976531;28;87012;-73
2021/12/23 08:49:33;;;;;;;9.70;4.50;;;20.30;52.20;;;;;;4950690;28;86856;-78
2021/12/23 08:51:58;;;;;;;8.93;4.25;;;20.30;52.00;;;;;;4936999;28;85961;-79
2021/12/23 08:54:24;;;;;;;7.93;3.70;;;20.20;52.00;;;;;;4939024;28;86399;-78
2021/12/23 08:56:50;;;;;;;12.32;4.18;;;20.20;52.20;;;;;;4955315;28;86879;-79
2021/12/23 08:59:17;;;;;;;10.65;4.72;;;20.10;52.20;;;;;;4956238;28;86453;-78
2021/12/23 09:01:43;;;;;;;10.02;4.03;;;20.20;52.30;;;;;;4937848;28;87052;-78
2021/12/23 09:04:09;;;;;;;8.93;4.00;;;20.10;52.20;;;;;;4956060;28;86521;-77
2021/12/23 09:06:34;;;;;;;9.38;4.07;;;20.10;52.30;;;;;;4954995;28;88121;-78
2021/12/23 09:09:00;;;;;;;14.10;4.40;;;20.10;52.30;;;;;;4954485;28;86387;-79
2021/12/23 09:11:26;;;;;;;8.02;4.10;;;20.10;52.20;;;;;;4936715;28;86380;-78
2021/12/23 09:13:52;;;;;;;11.60;4.57;;;20.10;52.10;;;;;;4879979;28;86298;-78
2021/12/23 09:16:18;;;;;;;15.00;3.80;;;20.10;52.00;;;;;;4921465;28;85841;-78
2021/12/23 09:18:44;;;;;;;6.75;3.67;;;20.10;51.80;;;;;;4928568;28;86291;-78
2021/12/23 09:21:12;;;;;;;10.75;4.30;;;20.10;51.80;;;;;;4907314;28;86932;-79
2021/12/23 09:23:38;;;;;;;8.63;3.45;;;20.10;51.70;;;;;;4923079;28;86171;-79
2021/12/23 09:26:09;;;;;;;12.82;5.22;;;20.10;51.70;;;;;;4901538;28;88032;-79
2021/12/23 09:28:52;;;;;;;10.20;4.05;;;20.10;51.70;;;;;;4894941;28;89624;-78
2021/12/23 09:34:03;;;;;;;10.55;3.80;;;20.00;51.80;;;;;;4922041;28;86194;-77
2021/12/23 09:36:29;;;;;;;15.13;4.40;;;20.00;51.80;;;;;;4926667;28;86789;-77
2021/12/23 09:38:54;;;;;;;8.63;3.83;;;20.00;51.70;;;;;;4925914;28;86366;-79
2021/12/23 09:41:21;;;;;;;6.53;3.55;;;20.00;51.60;;;;;;4907236;28;86376;-78
2021/12/23 09:43:48;;;;;;;9.13;4.20;;;20.00;51.50;;;;;;4907859;28;87167;-78
2021/12/23 09:46:18;;;;;;;11.30;4.18;;;20.00;51.50;;;;;;4923979;28;86590;-77
2021/12/23 09:48:45;;;;;;;9.50;3.40;;;20.00;51.40;;;;;;4908292;28;88529;-79
2021/12/23 09:51:13;;;;;;;7.93;3.80;;;20.00;51.40;;;;;;4901899;28;85812;-77
2021/12/23 09:53:41;;;;;;;9.00;4.05;;;20.00;51.40;;;;;;4930748;28;85774;-77
2021/12/23 09:56:07;;;;;;;7.68;3.83;;;20.00;51.50;;;;;;4914203;28;86727;-79
2021/12/23 09:58:33;;;;;;;6.30;3.65;;;20.00;51.50;;;;;;4915446;28;88193;-78
2021/12/23 10:00:59;;;;;;;7.38;4.13;;;19.90;51.50;;;;;;4914393;28;86493;-78
2021/12/23 10:03:28;;;;;;;7.97;3.55;;;20.00;51.60;;;;;;4936074;28;86159;-78
2021/12/23 10:05:55;;;;;;;8.30;3.50;;;19.90;51.70;;;;;;4931647;28;86802;-79
2021/12/23 10:08:21;;;;;;;9.10;3.90;;;19.90;52.10;;;;;;4930171;28;87455;-78
2021/12/23 10:10:52;;;;;;;7.80;3.88;;;19.90;51.60;;;;;;4924306;28;85886;-79
2021/12/23 10:38:16;;;;;;;8.55;3.13;;;19.90;51.90;;;;;;4938697;28;86747;-78
2021/12/23 10:40:45;;;;;;;7.45;3.25;;;20.00;51.80;;;;;;4932811;28;86548;-77
2021/12/23 10:43:31;;;;;;;8.60;3.60;;;20.00;51.80;;;;;;4929549;28;85912;-80
2021/12/23 10:46:17;;;;;;;7.97;3.38;;;20.10;51.90;;;;;;4916410;28;86215;-79
2021/12/23 10:49:00;;;;;;;8.32;3.08;;;20.10;51.90;;;;;;4917838;28;86805;-79
2021/12/23 10:51:26;;;;;;;8.27;3.10;;;20.10;51.90;;;;;;4913697;28;87331;-80
2021/12/23 10:59:23;;;;;;;8.38;3.55;;;20.10;52.00;;;;;;4884446;28;85926;-79
2021/12/23 11:02:30;;;;;;;6.28;3.55;;;20.10;52.00;;;;;;4913357;28;89284;-78
2021/12/23 11:05:23;;;;;;;9.07;3.58;;;20.10;52.10;;;;;;4931860;28;86773;-78
2021/12/23 11:38:19;;;;;;;5.15;2.80;;;20.10;52.50;;;;;;4946508;28;86122;-78
2021/12/23 11:45:46;;;;;;;5.55;3.03;;;20.00;52.60;;;;;;4945370;28;87038;-79
2021/12/23 11:48:14;;;;;;;6.75;2.92;;;20.00;52.60;;;;;;4923606;28;86928;-78
2021/12/23 11:50:54;;;;;;;5.15;2.67;;;20.00;52.70;;;;;;4929408;28;85591;-78
2021/12/23 11:53:26;;;;;;;4.35;2.60;;;20.00;52.70;;;;;;4945037;28;86343;-77
2021/12/23 11:55:53;;;;;;;7.00;2.70;;;19.90;52.80;;;;;;4932867;28;86453;-76
2021/12/23 11:58:24;;;;;;;11.10;4.15;;;19.90;53.40;;;;;;4932044;28;87067;-78
2021/12/23 12:01:20;;;;;;;5.10;2.78;;;20.00;53.40;;;;;;4930082;28;86408;-80
2021/12/23 12:04:04;;;;;;;5.13;2.83;;;20.00;53.70;;;;;;4917907;28;88328;-78
2021/12/23 12:06:40;;;;;;;7.85;3.17;;;20.00;54.00;;;;;;4927092;28;86519;-77
2021/12/23 12:09:20;;;;;;;6.07;2.83;;;20.00;53.90;;;;;;4943576;28;85889;-75
2021/12/23 12:12:07;;;;;;;6.40;2.80;;;20.10;54.10;;;;;;4938398;28;86193;-76
2021/12/23 12:14:45;;;;;;;9.23;2.75;;;20.10;54.70;;;;;;4934147;28;87208;-80
2021/12/23 12:17:26;;;;;;;4.55;2.55;;;20.20;54.60;;;;;;4927035;28;86416;-78
2021/12/23 12:20:01;;;;;;;5.13;2.85;;;20.30;54.90;;;;;;4922151;28;86082;-78
2021/12/23 12:22:57;;;;;;;5.45;2.90;;;20.30;54.80;;;;;;4942090;28;87219;-78
2021/12/23 12:25:31;;;;;;;7.57;2.95;;;20.40;54.40;;;;;;4946102;28;87300;-80
2021/12/23 12:27:57;;;;;;;7.15;2.75;;;20.30;54.40;;;;;;4939277;28;86586;-80
2021/12/23 12:30:49;;;;;;;6.75;2.35;;;20.40;54.40;;;;;;4959162;23;88298;-60
2021/12/23 12:33:24;;;;;;;12.43;4.65;;;20.30;54.30;;;;;;4915100;28;85674;-60
2021/12/23 12:36:05;;;;;;;64.00;23.13;;;20.40;54.30;;;;;;4930932;28;85858;-59
2021/12/23 12:38:38;;;;;;;40.67;16.33;;;20.40;54.40;;;;;;4928796;28;87203;-58
2021/12/23 12:41:16;;;;;;;35.75;13.57;;;20.30;54.40;;;;;;4931116;28;86082;-66
2021/12/23 12:43:47;;;;;;;32.10;12.25;;;20.30;55.00;;;;;;4930458;28;86369;-64
2021/12/23 12:46:41;;;;;;;27.88;9.80;;;20.30;54.60;;;;;;4929489;28;88002;-60
2021/12/23 12:49:23;;;;;;;24.92;8.98;;;20.30;55.10;;;;;;4906531;28;89226;-58
2021/12/23 12:51:50;;;;;;;20.75;8.52;;;20.30;55.00;;;;;;4929825;28;87004;-57
2021/12/23 12:54:30;;;;;;;34.22;9.65;;;20.30;54.90;;;;;;4910809;28;87550;-61
2021/12/23 12:57:04;;;;;;;27.25;9.77;;;20.40;55.10;;;;;;4933482;28;87557;-56
2021/12/23 12:59:35;;;;;;;21.55;8.48;;;20.40;55.30;;;;;;4912177;28;89252;-59
2021/12/23 13:02:01;;;;;;;19.90;7.97;;;20.40;54.90;;;;;;4913187;28;86382;-58
2021/12/23 13:04:43;;;;;;;18.48;7.72;;;20.30;54.60;;;;;;4912360;28;86183;-57
2021/12/23 13:07:27;;;;;;;15.90;6.90;;;20.30;54.50;;;;;;4930474;28;86688;-58
2021/12/23 13:10:05;;;;;;;13.93;6.68;;;20.30;54.40;;;;;;4936146;28;86578;-59
2021/12/23 13:12:34;;;;;;;17.08;5.85;;;20.30;54.30;;;;;;4931543;28;87053;-57
2021/12/23 13:15:21;;;;;;;13.80;5.97;;;20.30;54.20;;;;;;4930807;28;86462;-59
2021/12/23 13:17:51;;;;;;;15.93;6.13;;;20.30;54.10;;;;;;4934288;28;86895;-58
2021/12/23 13:20:18;;;;;;;13.48;5.78;;;20.20;54.10;;;;;;4929279;28;88747;-58
2021/12/23 13:22:45;;;;;;;15.38;6.63;;;20.20;54.10;;;;;;4930562;28;85891;-58
2021/12/23 13:25:11;;;;;;;13.75;5.75;;;20.20;54.00;;;;;;4929070;28;86518;-58
2021/12/23 13:27:41;;;;;;;12.35;5.65;;;20.20;54.00;;;;;;4929027;28;86840;-58
2021/12/23 13:30:10;;;;;;;15.48;5.45;;;20.20;54.10;;;;;;4929773;28;85802;-56
2021/12/23 13:32:36;;;;;;;11.38;5.32;;;20.20;54.10;;;;;;4930454;28;86492;-57
2021/12/23 13:35:14;;;;;;;10.55;5.35;;;20.10;54.00;;;;;;4930341;28;86649;-59
2021/12/23 13:37:47;;;;;;;8.88;4.43;;;20.10;54.10;;;;;;4929769;28;89242;-58
2021/12/23 13:40:34;;;;;;;11.90;5.07;;;20.10;54.10;;;;;;4930240;28;86366;-58
2021/12/23 13:43:00;;;;;;;12.30;4.65;;;20.10;54.00;;;;;;4917731;28;86866;-57
2021/12/23 13:45:28;;;;;;;32.08;5.50;;;20.10;54.00;;;;;;4929576;28;86917;-59
2021/12/23 13:47:56;;;;;;;9.93;4.60;;;20.10;53.90;;;;;;4930086;28;86899;-57
2021/12/23 13:50:24;;;;;;;11.45;4.22;;;20.10;54.10;;;;;;4934730;28;86567;-57
2021/12/23 13:52:51;;;;;;;14.45;4.93;;;20.10;54.10;;;;;;4931910;28;86354;-57
2021/12/23 13:55:24;;;;;;;10.30;4.57;;;20.10;54.10;;;;;;4927953;28;85827;-57
2021/12/23 13:58:23;;;;;;;13.25;4.50;;;20.10;54.10;;;;;;4929798;28;86613;-57
2021/12/23 14:00:49;;;;;;;14.50;5.72;;;20.10;54.00;;;;;;4921245;28;86905;-58
2021/12/23 14:03:15;;;;;;;11.50;4.43;;;20.10;54.00;;;;;;4935799;28;86604;-58
2021/12/23 14:05:42;;;;;;;14.68;4.85;;;20.10;54.00;;;;;;4928641;28;86181;-57
2021/12/23 14:08:12;;;;;;;10.00;4.53;;;20.10;54.00;;;;;;4929641;28;87273;-57
2021/12/23 14:10:40;;;;;;;8.23;4.18;;;20.10;54.00;;;;;;4938201;28;86884;-57